Time;durP1;ratioP1;P1;durP2;ratioP2;P2;SDS_P1;SDS_P2;PMS_P1;PMS_P2;Temp;Humidity;BMP_temperature;BMP_pressure;BME280_temperature;BME280_humidity;BME280_pressure;Samples;Min_cycle;Max_cycle;Signal;HPM_P1;HPM_P2
2022/08/20 00:00:54;;;;;;;12.10;6.90;;;23.40;99.90;;;;;;4591307;19;20351;-31
2022/08/20 00:02:25;;;;;;;21.55;9.00;;;23.40;99.90;;;;;;4587461;19;20015;-28
2022/08/20 00:03:56;;;;;;;10.63;7.43;;;23.40;99.90;;;;;;4590846;19;20040;-30
2022/08/20 00:05:34;;;;;;;11.18;7.80;;;23.30;99.90;;;;;;4591322;19;20078;-29
2022/08/20 00:07:06;;;;;;;9.68;7.30;;;23.40;99.90;;;;;;4591552;19;20007;-33
2022/08/20 00:08:38;;;;;;;11.82;7.85;;;23.40;99.90;;;;;;4591409;19;20017;-34
2022/08/20 00:10:09;;;;;;;12.02;6.80;;;23.40;99.90;;;;;;4590778;19;20011;-28
2022/08/20 00:11:40;;;;;;;14.52;8.50;;;23.30;99.90;;;;;;4591196;19;20011;-29
2022/08/20 00:13:15;;;;;;;12.43;8.52;;;23.00;99.90;;;;;;4589958;19;20010;-34
2022/08/20 00:14:46;;;;;;;15.95;8.20;;;22.80;99.90;;;;;;4589953;19;20082;-29
2022/08/20 00:16:18;;;;;;;15.55;8.07;;;22.60;99.90;;;;;;4590420;19;20037;-30
2022/08/20 00:17:50;;;;;;;14.82;8.75;;;22.50;99.90;;;;;;4590050;19;20031;-30
2022/08/20 00:19:22;;;;;;;12.65;7.85;;;22.40;99.90;;;;;;4591342;19;20026;-36
2022/08/20 00:20:54;;;;;;;14.65;8.95;;;22.40;99.90;;;;;;4591252;19;20445;-29
2022/08/20 00:22:27;;;;;;;10.57;7.68;;;22.40;99.90;;;;;;4588324;19;20029;-29
2022/08/20 00:23:58;;;;;;;15.13;8.52;;;22.40;99.90;;;;;;4589501;19;20024;-28
2022/08/20 00:25:29;;;;;;;15.00;8.00;;;22.40;99.90;;;;;;4588258;19;20480;-29
2022/08/20 00:27:01;;;;;;;12.57;8.65;;;22.30;99.90;;;;;;4589342;19;20013;-31
2022/08/20 00:28:32;;;;;;;14.05;8.05;;;22.30;99.90;;;;;;4589874;19;20022;-30
2022/08/20 00:30:04;;;;;;;;;;;22.30;99.90;;;;;;4589823;19;20022;-29
2022/08/20 00:31:35;;;;;;;15.13;7.88;;;22.30;99.90;;;;;;4589438;19;20358;-33
2022/08/20 00:33:15;;;;;;;13.98;7.63;;;22.30;99.90;;;;;;4590332;19;20029;-31
2022/08/20 00:34:46;;;;;;;11.30;7.85;;;22.30;99.90;;;;;;4587561;19;20011;-38
2022/08/20 00:36:18;;;;;;;;;;;22.30;99.90;;;;;;4590544;19;20070;-36
2022/08/20 00:37:49;;;;;;;14.00;7.03;;;22.20;99.90;;;;;;4589108;19;20268;-35
2022/08/20 00:39:20;;;;;;;11.77;7.10;;;22.20;99.90;;;;;;4591034;19;20028;-29
2022/08/20 00:40:57;;;;;;;16.42;6.68;;;22.30;99.90;;;;;;4587723;19;20013;-28
2022/08/20 00:42:28;;;;;;;14.13;7.82;;;22.30;99.90;;;;;;4588275;19;20037;-31
2022/08/20 00:44:04;;;;;;;11.68;7.50;;;22.30;99.90;;;;;;4588637;19;20105;-30
2022/08/20 00:45:35;;;;;;;12.77;7.32;;;22.30;99.90;;;;;;4588838;19;20082;-31
2022/08/20 00:47:08;;;;;;;10.75;7.57;;;22.30;99.90;;;;;;4589458;19;20370;-35
2022/08/20 00:48:40;;;;;;;16.33;7.75;;;22.40;99.90;;;;;;4590880;19;20019;-29
2022/08/20 00:50:14;;;;;;;15.48;8.65;;;22.40;99.90;;;;;;4591616;19;20333;-29
2022/08/20 00:51:52;;;;;;;14.25;7.45;;;22.40;99.90;;;;;;4589826;19;20015;-29
2022/08/20 00:53:23;;;;;;;16.48;9.02;;;22.30;99.90;;;;;;4589371;19;20013;-29
2022/08/20 00:54:57;;;;;;;18.10;8.60;;;22.10;99.90;;;;;;4589040;19;20018;-34
2022/08/20 00:56:30;;;;;;;16.27;8.23;;;22.10;99.90;;;;;;4589471;19;20018;-30
2022/08/20 00:58:04;;;;;;;15.38;8.02;;;22.00;99.90;;;;;;4589475;19;20022;-29
2022/08/20 00:59:37;;;;;;;16.95;8.82;;;21.90;99.90;;;;;;4589343;19;20053;-29
2022/08/20 01:01:08;;;;;;;13.93;8.52;;;21.90;99.90;;;;;;4589095;19;20022;-28
2022/08/20 01:02:40;;;;;;;14.82;9.57;;;21.80;99.90;;;;;;4588939;19;20018;-31
2022/08/20 01:04:11;;;;;;;15.57;9.07;;;21.80;99.90;;;;;;4590637;19;20015;-29
2022/08/20 01:05:44;;;;;;;20.25;10.77;;;21.70;99.90;;;;;;4586319;19;20352;-29
2022/08/20 01:07:19;;;;;;;14.02;9.07;;;21.70;99.90;;;;;;4590035;19;20019;-29
2022/08/20 01:08:50;;;;;;;17.20;9.57;;;21.70;99.90;;;;;;4588892;19;20022;-33
2022/08/20 01:10:26;;;;;;;16.02;13.02;;;21.70;99.90;;;;;;4587979;19;20010;-30
2022/08/20 01:11:57;;;;;;;17.55;13.15;;;21.20;99.90;;;;;;4588233;19;20010;-35
2022/08/20 01:13:30;;;;;;;14.38;12.93;;;21.10;99.90;;;;;;4591512;19;20031;-28
2022/08/20 01:15:02;;;;;;;16.92;14.27;;;21.00;99.90;;;;;;4594474;19;20015;-29
2022/08/20 01:16:34;;;;;;;16.15;14.48;;;21.00;99.90;;;;;;4593020;19;20025;-32
2022/08/20 01:18:05;;;;;;;18.45;14.68;;;21.00;99.90;;;;;;4594620;19;20085;-31
2022/08/20 01:19:48;;;;;;;16.65;14.63;;;21.10;99.90;;;;;;4591920;19;20058;-29
2022/08/20 01:21:24;;;;;;;19.92;15.65;;;21.10;99.90;;;;;;4590892;19;20077;-31
2022/08/20 01:23:27;;;;;;;19.65;16.05;;;21.10;99.90;;;;;;4594721;19;20011;-30
2022/08/20 01:25:06;;;;;;;18.27;15.73;;;21.20;99.90;;;;;;4592995;19;20010;-38
2022/08/20 01:26:39;;;;;;;20.52;16.13;;;21.20;99.90;;;;;;4593162;19;20015;-34
2022/08/20 01:28:11;;;;;;;21.15;16.75;;;21.20;99.90;;;;;;4591207;19;20014;-31
2022/08/20 01:29:43;;;;;;;18.10;16.02;;;21.10;99.90;;;;;;4593359;19;20333;-33
2022/08/20 01:31:15;;;;;;;;;;;21.20;99.90;;;;;;4594327;19;20018;-32
2022/08/20 01:32:46;;;;;;;;;;;21.20;99.90;;;;;;4593169;19;19914;-32
2022/08/20 01:34:21;;;;;;;17.35;15.15;;;21.10;99.90;;;;;;4594446;19;19918;-29
2022/08/20 01:35:52;;;;;;;18.45;15.98;;;21.20;99.90;;;;;;4593420;19;20097;-29
2022/08/20 01:37:24;;;;;;;19.98;16.67;;;21.20;99.90;;;;;;4593143;19;20018;-30
2022/08/20 01:38:55;;;;;;;18.17;16.20;;;21.20;99.90;;;;;;4593447;19;20082;-32
2022/08/20 01:40:30;;;;;;;;;;;21.20;99.90;;;;;;4593378;19;20014;-34
2022/08/20 01:42:16;;;;;;;19.45;17.42;;;21.20;99.90;;;;;;4591691;19;20237;-28
2022/08/20 01:43:48;;;;;;;20.55;18.02;;;21.20;99.90;;;;;;4592830;19;20025;-31
2022/08/20 01:45:20;;;;;;;21.40;19.15;;;21.20;99.90;;;;;;4592555;19;20017;-29
2022/08/20 01:46:52;;;;;;;21.73;19.25;;;21.20;99.90;;;;;;4594458;19;20461;-35
2022/08/20 01:48:23;;;;;;;21.73;19.73;;;21.20;99.90;;;;;;4592494;19;20107;-28
2022/08/20 01:50:07;;;;;;;22.42;20.02;;;21.20;99.90;;;;;;4593655;19;20014;-28
2022/08/20 01:51:38;;;;;;;22.38;20.08;;;21.30;99.90;;;;;;4592051;19;20022;-29
2022/08/20 01:53:23;;;;;;;23.63;21.42;;;21.20;99.90;;;;;;4592101;19;20082;-34
2022/08/20 01:54:54;;;;;;;24.08;21.58;;;21.30;99.90;;;;;;4591820;19;20029;-32
2022/08/20 01:56:29;;;;;;;22.55;20.23;;;21.30;99.90;;;;;;4591700;19;20018;-31
2022/08/20 01:58:00;;;;;;;23.33;20.92;;;21.30;99.90;;;;;;4593505;19;20021;-32
2022/08/20 01:59:31;;;;;;;25.55;22.30;;;21.30;99.90;;;;;;4594048;19;20010;-34
2022/08/20 02:01:03;;;;;;;25.90;23.50;;;21.30;99.90;;;;;;4593987;19;20017;-34
2022/08/20 02:02:34;;;;;;;25.63;23.23;;;21.30;99.90;;;;;;4590559;19;20356;-28
2022/08/20 02:04:08;;;;;;;25.38;23.10;;;21.30;99.90;;;;;;4592609;19;20456;-32
2022/08/20 02:05:39;;;;;;;25.10;22.70;;;21.30;99.90;;;;;;4590968;19;20474;-31
2022/08/20 02:07:15;;;;;;;30.38;27.77;;;21.30;99.90;;;;;;4592910;19;20360;-34
2022/08/20 02:08:46;;;;;;;28.33;25.88;;;21.30;99.90;;;;;;4592334;19;20049;-28
2022/08/20 02:10:18;;;;;;;30.48;27.88;;;21.30;99.90;;;;;;4592724;19;20407;-31
2022/08/20 02:11:52;;;;;;;31.15;28.65;;;21.30;99.90;;;;;;4593149;19;20019;-31
2022/08/20 02:13:23;;;;;;;34.05;31.08;;;21.30;99.90;;;;;;4590513;19;20680;-30
2022/08/20 02:14:55;;;;;;;33.05;30.38;;;21.30;99.90;;;;;;4592738;19;20014;-28
2022/08/20 02:16:32;;;;;;;34.72;31.92;;;21.30;99.90;;;;;;4593073;19;20014;-32
2022/08/20 02:18:04;;;;;;;37.95;34.85;;;21.30;99.90;;;;;;4593922;19;20029;-29
2022/08/20 02:19:41;;;;;;;39.38;36.15;;;21.30;99.90;;;;;;4591948;19;20018;-29
2022/08/20 02:21:12;;;;;;;40.45;37.15;;;21.30;99.90;;;;;;4590894;19;20014;-29
2022/08/20 02:22:46;;;;;;;41.88;38.38;;;21.30;99.90;;;;;;4592892;19;20017;-29
2022/08/20 02:24:18;;;;;;;41.90;38.50;;;21.30;99.90;;;;;;4592004;19;20363;-33
2022/08/20 02:25:50;;;;;;;42.58;39.17;;;21.30;99.90;;;;;;4588927;19;20443;-31
2022/08/20 02:27:22;;;;;;;40.85;37.55;;;21.30;99.90;;;;;;4590026;19;20021;-31
2022/08/20 02:28:54;;;;;;;;;;;21.30;99.90;;;;;;4594312;19;20070;-30
2022/08/20 02:30:32;;;;;;;38.10;34.85;;;21.40;99.90;;;;;;4591372;19;19949;-29
2022/08/20 02:32:05;;;;;;;37.72;34.72;;;21.40;99.90;;;;;;4591023;19;20007;-35
2022/08/20 02:33:36;;;;;;;36.55;33.70;;;21.40;99.90;;;;;;4592761;19;20034;-29
2022/08/20 02:35:08;;;;;;;35.90;33.10;;;21.40;99.90;;;;;;4592859;19;20014;-30
2022/08/20 02:36:40;;;;;;;35.42;32.70;;;21.40;99.90;;;;;;4592650;19;20019;-31
2022/08/20 02:38:11;;;;;;;34.80;32.03;;;21.40;99.90;;;;;;4591467;19;20014;-30
2022/08/20 02:39:44;;;;;;;33.45;30.65;;;21.40;99.90;;;;;;4592710;19;20337;-31
2022/08/20 02:41:16;;;;;;;34.20;31.08;;;21.40;99.90;;;;;;4591817;19;20045;-34
2022/08/20 02:42:47;;;;;;;31.58;28.67;;;21.40;99.90;;;;;;4592135;19;20085;-29
2022/08/20 02:44:19;;;;;;;30.50;27.98;;;21.40;99.90;;;;;;4592196;19;20006;-29
2022/08/20 02:45:51;;;;;;;29.85;27.30;;;21.40;99.90;;;;;;4593468;19;20043;-30
2022/08/20 02:47:22;;;;;;;29.27;26.67;;;21.40;99.90;;;;;;4592531;19;20040;-30
2022/08/20 02:48:54;;;;;;;27.20;24.98;;;21.40;99.90;;;;;;4591166;19;20031;-38
2022/08/20 02:50:25;;;;;;;25.67;23.52;;;21.40;99.90;;;;;;4592195;19;20136;-28
2022/08/20 02:51:57;;;;;;;30.00;27.60;;;21.40;99.90;;;;;;4591699;19;20348;-32
2022/08/20 02:53:29;;;;;;;26.52;24.20;;;21.40;99.90;;;;;;4592162;19;20022;-31
2022/08/20 02:55:01;;;;;;;29.50;26.92;;;21.40;99.90;;;;;;4590464;19;20498;-32
2022/08/20 02:56:32;;;;;;;27.65;25.38;;;21.40;99.90;;;;;;4592947;19;20034;-33
2022/08/20 02:58:03;;;;;;;;;;;21.40;99.90;;;;;;4592710;19;20471;-32
2022/08/20 02:59:34;;;;;;;28.75;26.38;;;21.40;99.90;;;;;;4590844;19;19918;-31
2022/08/20 03:01:07;;;;;;;26.08;23.88;;;21.40;99.90;;;;;;4590391;19;20014;-35
2022/08/20 03:02:39;;;;;;;26.83;24.55;;;21.40;99.90;;;;;;4590182;19;20006;-30
2022/08/20 03:04:10;;;;;;;27.45;24.98;;;21.40;99.90;;;;;;4592244;19;20018;-32
2022/08/20 03:05:42;;;;;;;27.45;25.17;;;21.40;99.90;;;;;;4591097;19;20345;-35
2022/08/20 03:07:14;;;;;;;26.20;24.05;;;21.40;99.90;;;;;;4591969;19;20014;-32
2022/08/20 03:08:45;;;;;;;;;;;21.40;99.90;;;;;;4591548;19;20015;-34
2022/08/20 03:10:17;;;;;;;28.02;25.73;;;21.40;99.90;;;;;;4592156;19;19922;-32
2022/08/20 03:11:48;;;;;;;28.50;26.20;;;21.40;99.90;;;;;;4590792;19;20028;-34
2022/08/20 03:13:19;;;;;;;31.50;28.70;;;21.40;99.90;;;;;;4591414;19;20014;-34
2022/08/20 03:14:50;;;;;;;32.13;29.33;;;21.40;99.90;;;;;;4590890;19;20021;-31
2022/08/20 03:16:22;;;;;;;32.65;29.75;;;21.40;99.90;;;;;;4591979;19;20025;-31
2022/08/20 03:18:08;;;;;;;32.35;29.65;;;21.40;99.90;;;;;;4592149;19;20479;-30
2022/08/20 03:19:39;;;;;;;33.67;30.60;;;21.50;99.90;;;;;;4589476;19;20059;-39
2022/08/20 03:21:11;;;;;;;33.90;31.00;;;21.50;99.90;;;;;;4591726;19;20368;-33
2022/08/20 03:22:43;;;;;;;32.75;29.98;;;21.40;99.90;;;;;;4588866;19;20022;-33
2022/08/20 03:24:14;;;;;;;32.10;29.33;;;21.40;99.90;;;;;;4590207;19;20015;-34
2022/08/20 03:25:46;;;;;;;28.60;26.17;;;21.40;99.90;;;;;;4590478;19;20014;-31
2022/08/20 03:27:17;;;;;;;30.85;28.13;;;21.40;99.90;;;;;;4590508;19;20019;-34
2022/08/20 03:28:48;;;;;;;;;;;21.40;99.90;;;;;;4591217;19;20341;-33
2022/08/20 03:30:20;;;;;;;30.15;27.58;;;21.40;99.90;;;;;;4591910;19;19919;-31
2022/08/20 03:31:51;;;;;;;28.95;26.55;;;21.40;99.90;;;;;;4590925;19;20014;-29
2022/08/20 03:33:22;;;;;;;29.45;27.05;;;21.40;99.90;;;;;;4591072;19;20019;-32
2022/08/20 03:34:54;;;;;;;28.23;25.92;;;21.40;99.90;;;;;;4592366;19;20070;-34
2022/08/20 03:36:25;;;;;;;27.38;25.08;;;21.40;99.90;;;;;;4591432;19;20018;-37
2022/08/20 03:37:56;;;;;;;27.08;24.58;;;21.40;99.90;;;;;;4591048;19;20059;-31
2022/08/20 03:39:27;;;;;;;27.15;24.83;;;21.40;99.90;;;;;;4591780;19;20070;-32
2022/08/20 03:41:00;;;;;;;27.58;25.17;;;21.40;99.90;;;;;;4590095;19;20027;-38
2022/08/20 03:42:31;;;;;;;29.55;27.05;;;21.40;99.90;;;;;;4590706;19;20015;-31
2022/08/20 03:44:03;;;;;;;30.25;27.55;;;21.40;99.90;;;;;;4590854;19;20034;-37
2022/08/20 03:45:35;;;;;;;27.10;24.77;;;21.40;99.90;;;;;;4591499;19;20010;-30
2022/08/20 03:47:08;;;;;;;29.00;26.50;;;21.40;99.90;;;;;;4591760;19;20019;-36
2022/08/20 03:48:39;;;;;;;29.77;27.00;;;21.40;99.90;;;;;;4590142;19;20030;-34
2022/08/20 03:50:10;;;;;;;28.08;25.73;;;21.40;99.90;;;;;;4592427;19;20015;-33
2022/08/20 03:51:41;;;;;;;29.95;27.35;;;21.30;99.90;;;;;;4591045;19;20524;-37
2022/08/20 03:53:12;;;;;;;29.65;26.85;;;21.40;99.90;;;;;;4591680;19;20010;-32
2022/08/20 03:54:44;;;;;;;28.77;26.38;;;21.30;99.90;;;;;;4589730;19;20033;-40
2022/08/20 03:56:16;;;;;;;29.10;26.65;;;21.30;99.90;;;;;;4591357;19;20029;-32
2022/08/20 03:57:53;;;;;;;28.83;26.17;;;21.30;99.90;;;;;;4590360;19;20031;-37
2022/08/20 03:59:25;;;;;;;27.83;25.42;;;21.30;99.90;;;;;;4590984;19;20010;-33
2022/08/20 04:00:56;;;;;;;28.85;26.42;;;21.30;99.90;;;;;;4590376;19;20055;-31
2022/08/20 04:02:27;;;;;;;26.63;24.30;;;21.30;99.90;;;;;;4590833;19;20033;-33
2022/08/20 04:03:59;;;;;;;27.17;24.98;;;21.40;99.90;;;;;;4590333;19;20014;-33
2022/08/20 04:05:32;;;;;;;25.05;22.95;;;21.40;99.90;;;;;;4589530;19;20010;-37
2022/08/20 04:07:14;;;;;;;26.05;23.63;;;21.30;99.90;;;;;;4590456;19;20079;-36
2022/08/20 04:08:45;;;;;;;27.35;24.85;;;21.40;99.90;;;;;;4590869;19;20010;-38
2022/08/20 04:10:17;;;;;;;25.30;23.10;;;21.30;99.90;;;;;;4591204;19;20014;-33
2022/08/20 04:11:48;;;;;;;;;;;21.40;99.90;;;;;;4590991;19;20026;-32
2022/08/20 04:13:20;;;;;;;26.33;23.85;;;21.30;99.90;;;;;;4590633;19;20351;-36
2022/08/20 04:14:51;;;;;;;26.30;24.00;;;21.40;99.90;;;;;;4589997;19;20368;-32
2022/08/20 04:16:22;;;;;;;26.50;24.20;;;21.30;99.90;;;;;;4590019;19;20010;-32
2022/08/20 04:17:54;;;;;;;24.45;22.25;;;21.30;99.90;;;;;;4591119;19;20018;-39
2022/08/20 04:19:25;;;;;;;25.30;23.23;;;21.40;99.90;;;;;;4590291;19;20045;-39
2022/08/20 04:20:56;;;;;;;25.25;23.10;;;21.40;99.90;;;;;;4591226;19;20031;-37
2022/08/20 04:22:27;;;;;;;25.08;22.98;;;21.40;99.90;;;;;;4589883;19;20479;-30
2022/08/20 04:23:59;;;;;;;25.05;22.83;;;21.40;99.90;;;;;;4591039;19;20021;-34
2022/08/20 04:25:31;;;;;;;24.42;22.30;;;21.40;99.90;;;;;;4590291;19;20031;-35
2022/08/20 04:27:03;;;;;;;23.70;21.65;;;21.40;99.90;;;;;;4591140;19;20045;-33
2022/08/20 04:28:34;;;;;;;24.40;22.30;;;21.40;99.90;;;;;;4590889;19;20475;-31
2022/08/20 04:30:07;;;;;;;26.35;23.85;;;21.40;99.90;;;;;;4590686;19;20026;-38
2022/08/20 04:31:38;;;;;;;26.73;24.10;;;21.40;99.90;;;;;;4590610;19;20011;-31
2022/08/20 04:33:09;;;;;;;25.05;22.75;;;21.40;99.90;;;;;;4589833;19;20310;-36
2022/08/20 04:34:40;;;;;;;26.90;24.70;;;21.40;99.90;;;;;;4588019;19;20015;-31
2022/08/20 04:36:13;;;;;;;27.05;24.83;;;21.40;99.90;;;;;;4590200;19;20475;-34
2022/08/20 04:37:45;;;;;;;28.42;25.92;;;21.40;99.90;;;;;;4589762;19;20022;-30
2022/08/20 04:39:16;;;;;;;29.67;26.98;;;21.40;99.90;;;;;;4591057;19;20003;-36
2022/08/20 04:40:57;;;;;;;28.90;26.25;;;21.40;99.90;;;;;;4588211;19;20041;-32
2022/08/20 04:42:29;;;;;;;28.83;26.42;;;21.40;99.90;;;;;;4590117;19;20018;-31
2022/08/20 04:44:00;;;;;;;29.33;26.92;;;21.40;99.90;;;;;;4590427;19;20468;-31
2022/08/20 04:45:32;;;;;;;30.38;27.67;;;21.40;99.90;;;;;;4589580;19;20003;-32
2022/08/20 04:47:03;;;;;;;30.67;27.98;;;21.40;99.90;;;;;;4588356;19;20011;-36
2022/08/20 04:48:36;;;;;;;30.50;27.77;;;21.40;99.90;;;;;;4587851;19;20014;-38
2022/08/20 04:50:08;;;;;;;29.58;26.95;;;21.40;99.90;;;;;;4590423;19;20037;-34
2022/08/20 04:51:39;;;;;;;28.40;25.80;;;21.40;99.90;;;;;;4590176;19;20018;-31
2022/08/20 04:53:12;;;;;;;28.48;25.88;;;21.40;99.90;;;;;;4591107;19;20014;-31
2022/08/20 04:54:45;;;;;;;26.85;24.48;;;21.40;99.90;;;;;;4588184;19;20010;-35
2022/08/20 04:56:17;;;;;;;25.85;23.60;;;21.40;99.90;;;;;;4589854;19;20014;-32
2022/08/20 04:57:48;;;;;;;26.95;24.55;;;21.40;99.90;;;;;;4591045;19;20011;-31
2022/08/20 04:59:19;;;;;;;25.98;23.75;;;21.40;99.90;;;;;;4590175;19;20021;-30
2022/08/20 05:00:54;;;;;;;25.38;23.08;;;21.40;99.90;;;;;;4589531;19;20014;-33
2022/08/20 05:02:25;;;;;;;25.63;23.52;;;21.50;99.90;;;;;;4588608;19;20058;-31
2022/08/20 05:03:56;;;;;;;26.42;24.17;;;21.40;99.90;;;;;;4589552;19;20523;-32
2022/08/20 05:05:29;;;;;;;27.08;24.98;;;21.50;99.90;;;;;;4590033;19;20022;-34
2022/08/20 05:07:00;;;;;;;27.20;24.70;;;21.50;99.90;;;;;;4589200;19;20026;-36
2022/08/20 05:08:32;;;;;;;28.52;25.95;;;21.50;99.90;;;;;;4588791;19;20011;-35
2022/08/20 05:10:04;;;;;;;29.20;26.80;;;21.50;99.90;;;;;;4590410;19;20003;-34
2022/08/20 05:11:35;;;;;;;28.75;26.23;;;21.50;99.90;;;;;;4588996;19;20089;-36
2022/08/20 05:13:07;;;;;;;29.63;27.17;;;21.50;99.90;;;;;;4590845;19;20471;-38
2022/08/20 05:14:38;;;;;;;28.83;26.33;;;21.50;99.90;;;;;;4589489;19;20479;-30
2022/08/20 05:16:09;;;;;;;28.52;26.02;;;21.50;99.90;;;;;;4589980;19;20022;-32
2022/08/20 05:17:40;;;;;;;29.25;26.73;;;21.60;99.90;;;;;;4589187;19;20025;-32
2022/08/20 05:19:12;;;;;;;28.80;26.40;;;21.50;99.90;;;;;;4589101;19;20037;-31
2022/08/20 05:20:43;;;;;;;29.58;27.08;;;21.60;99.90;;;;;;4588921;19;20388;-33
2022/08/20 05:22:15;;;;;;;28.77;26.27;;;21.60;99.90;;;;;;4587457;19;20087;-38
2022/08/20 05:23:46;;;;;;;27.55;25.10;;;21.60;99.90;;;;;;4587554;19;20018;-32
2022/08/20 05:25:17;;;;;;;27.00;24.60;;;21.60;99.90;;;;;;4590375;19;20035;-34
2022/08/20 05:26:48;;;;;;;28.02;25.55;;;21.60;99.90;;;;;;4588710;19;20471;-33
2022/08/20 05:28:24;;;;;;;25.38;23.17;;;21.70;99.90;;;;;;4590398;19;20463;-33
2022/08/20 05:30:09;;;;;;;25.52;23.23;;;21.70;99.90;;;;;;4589649;19;20014;-35
2022/08/20 05:31:41;;;;;;;26.10;23.90;;;21.70;99.90;;;;;;4590462;19;20016;-32
2022/08/20 05:33:14;;;;;;;24.83;22.60;;;21.70;99.90;;;;;;4589471;19;20110;-36
2022/08/20 05:34:45;;;;;;;26.08;23.77;;;21.70;99.90;;;;;;4589249;19;20014;-37
2022/08/20 05:36:16;;;;;;;;;;;21.70;99.90;;;;;;4588169;19;20037;-32
2022/08/20 05:37:48;;;;;;;24.83;22.60;;;21.70;99.90;;;;;;4590223;19;19992;-32
2022/08/20 05:39:20;;;;;;;23.60;21.58;;;21.70;99.90;;;;;;4588976;19;20161;-36
2022/08/20 05:40:51;;;;;;;25.25;22.95;;;21.70;99.90;;;;;;4588027;19;20014;-33
2022/08/20 05:42:22;;;;;;;23.02;21.02;;;21.70;99.90;;;;;;4588344;19;20035;-32
2022/08/20 05:43:54;;;;;;;22.98;21.02;;;21.80;99.90;;;;;;4590019;19;20367;-32
2022/08/20 05:45:25;;;;;;;23.00;20.92;;;21.80;99.90;;;;;;4589254;19;20032;-32
2022/08/20 05:46:56;;;;;;;22.75;20.65;;;21.80;99.90;;;;;;4588020;19;20014;-32
2022/08/20 05:48:27;;;;;;;22.80;20.80;;;21.80;99.90;;;;;;4590064;19;20499;-32
2022/08/20 05:49:59;;;;;;;22.75;20.75;;;21.80;99.90;;;;;;4588600;19;20766;-32
2022/08/20 05:51:30;;;;;;;21.20;19.38;;;21.90;99.90;;;;;;4589274;19;20014;-31
2022/08/20 05:53:01;;;;;;;22.30;20.38;;;21.90;99.90;;;;;;4590353;19;20078;-34
2022/08/20 05:54:32;;;;;;;22.02;20.02;;;21.90;99.90;;;;;;4588090;19;20506;-32
2022/08/20 05:56:03;;;;;;;;;;;21.90;99.90;;;;;;4590651;19;20039;-36
2022/08/20 05:57:35;;;;;;;21.38;19.52;;;21.90;99.90;;;;;;4588831;19;19915;-35
2022/08/20 05:59:07;;;;;;;21.15;19.25;;;21.90;99.90;;;;;;4589233;19;20062;-38
2022/08/20 06:00:38;;;;;;;19.58;17.77;;;22.00;99.90;;;;;;4591165;19;20014;-35
2022/08/20 06:04:23;;;;;;;19.90;18.15;;;22.00;99.90;;;;;;4591474;19;20029;-33
2022/08/20 06:05:50;;;;;;;17.30;15.80;;;22.00;99.90;;;;;;4591093;19;20043;-40
2022/08/20 06:07:21;;;;;;;17.67;16.17;;;22.00;99.90;;;;;;4590005;19;20098;-31
2022/08/20 06:08:52;;;;;;;17.42;15.75;;;22.00;99.90;;;;;;4591804;19;20066;-33
2022/08/20 06:10:24;;;;;;;17.50;15.82;;;22.00;99.90;;;;;;4590404;19;20015;-33
2022/08/20 06:11:55;;;;;;;16.73;15.23;;;22.10;99.90;;;;;;4590931;19;20015;-36
2022/08/20 06:13:27;;;;;;;16.92;15.43;;;22.10;99.90;;;;;;4591299;19;20021;-33
2022/08/20 06:14:58;;;;;;;15.55;14.07;;;22.00;99.90;;;;;;4591772;19;20011;-37
2022/08/20 06:16:30;;;;;;;16.65;15.15;;;22.10;99.90;;;;;;4590682;19;20023;-30
2022/08/20 06:18:06;;;;;;;16.25;14.73;;;22.10;99.90;;;;;;4590198;19;20497;-31
2022/08/20 06:19:38;;;;;;;16.40;14.80;;;22.10;99.90;;;;;;4591219;19;20046;-31
2022/08/20 06:21:09;;;;;;;16.75;15.15;;;22.10;99.90;;;;;;4590394;19;20421;-32
2022/08/20 06:22:40;;;;;;;16.08;14.68;;;22.10;99.90;;;;;;4589681;19;20021;-34
2022/08/20 06:24:11;;;;;;;14.82;13.52;;;22.10;99.90;;;;;;4589956;19;20666;-31
2022/08/20 06:25:42;;;;;;;14.65;13.25;;;22.10;99.90;;;;;;4590324;19;20015;-32
2022/08/20 06:27:14;;;;;;;14.60;13.25;;;22.20;99.90;;;;;;4591553;19;20018;-31
2022/08/20 06:28:45;;;;;;;12.93;11.63;;;22.20;99.90;;;;;;4590341;19;20611;-33
2022/08/20 06:30:17;;;;;;;13.73;12.48;;;22.20;99.90;;;;;;4589877;19;20014;-32
2022/08/20 06:31:48;;;;;;;13.57;12.18;;;22.20;99.90;;;;;;4591239;19;20010;-37
2022/08/20 06:33:19;;;;;;;14.63;13.13;;;22.20;99.90;;;;;;4590971;19;20487;-37
2022/08/20 06:34:50;;;;;;;13.63;12.20;;;22.20;99.90;;;;;;4589900;19;20035;-32
2022/08/20 06:36:22;;;;;;;14.18;12.88;;;22.20;99.90;;;;;;4593749;19;20040;-38
2022/08/20 06:37:53;;;;;;;14.90;13.48;;;22.20;99.90;;;;;;4592523;19;20022;-32
2022/08/20 06:39:25;;;;;;;15.07;13.77;;;22.30;99.90;;;;;;4591414;19;20014;-34
2022/08/20 06:40:56;;;;;;;14.00;12.70;;;22.30;99.90;;;;;;4591120;19;20049;-36
2022/08/20 06:42:28;;;;;;;15.05;13.65;;;22.30;99.90;;;;;;4591813;19;20352;-33
2022/08/20 06:43:59;;;;;;;15.95;14.27;;;22.30;99.90;;;;;;4593513;19;20058;-32
2022/08/20 06:45:31;;;;;;;14.18;12.88;;;22.30;99.90;;;;;;4592793;19;20022;-39
2022/08/20 06:47:03;;;;;;;15.30;13.88;;;22.30;99.90;;;;;;4592577;19;20059;-36
2022/08/20 06:48:34;;;;;;;13.85;12.55;;;22.40;99.90;;;;;;4592232;19;20018;-36
2022/08/20 06:50:19;;;;;;;13.02;11.82;;;22.40;99.90;;;;;;4591175;19;20010;-36
2022/08/20 06:51:50;;;;;;;13.88;12.55;;;22.40;99.90;;;;;;4591756;19;20494;-31
2022/08/20 06:53:21;;;;;;;15.52;12.98;;;22.40;99.90;;;;;;4592459;19;20074;-31
2022/08/20 06:54:52;;;;;;;12.50;11.30;;;22.40;99.90;;;;;;4592193;19;20476;-36
2022/08/20 06:56:23;;;;;;;12.93;11.70;;;22.40;99.90;;;;;;4591240;19;20363;-32
2022/08/20 06:57:58;;;;;;;13.90;11.20;;;22.40;99.90;;;;;;4591073;19;20018;-33
2022/08/20 06:59:29;;;;;;;13.05;11.60;;;22.40;99.90;;;;;;4592372;19;20074;-32
2022/08/20 07:01:00;;;;;;;13.43;12.02;;;22.40;99.90;;;;;;4591764;19;20019;-36
2022/08/20 07:02:33;;;;;;;12.15;11.05;;;22.40;99.90;;;;;;4590443;19;20014;-33
2022/08/20 07:04:06;;;;;;;14.23;12.85;;;22.40;99.90;;;;;;4592283;19;20015;-31
2022/08/20 07:05:41;;;;;;;12.65;11.35;;;22.40;99.90;;;;;;4591678;19;20019;-30
2022/08/20 07:07:16;;;;;;;12.50;11.30;;;22.40;99.90;;;;;;4590764;19;20014;-38
2022/08/20 07:08:47;;;;;;;12.95;11.68;;;22.40;99.90;;;;;;4592709;19;20082;-32
2022/08/20 07:10:19;;;;;;;13.48;11.88;;;22.40;99.90;;;;;;4591658;19;20483;-33
2022/08/20 07:11:51;;;;;;;;;;;22.40;99.90;;;;;;4593505;19;20027;-32
2022/08/20 07:13:22;;;;;;;12.75;11.45;;;22.40;99.90;;;;;;4592002;19;19923;-31
2022/08/20 07:14:53;;;;;;;13.63;12.25;;;22.40;99.90;;;;;;4592655;19;20107;-31
2022/08/20 07:16:25;;;;;;;13.95;12.50;;;22.40;99.90;;;;;;4590652;19;20015;-32
2022/08/20 07:17:58;;;;;;;10.98;9.88;;;22.40;99.90;;;;;;4591372;19;20496;-33
2022/08/20 07:19:29;;;;;;;13.30;12.05;;;22.40;99.90;;;;;;4592118;19;20106;-32
2022/08/20 07:21:00;;;;;;;10.75;9.75;;;22.40;99.90;;;;;;4591301;19;20027;-30
2022/08/20 07:22:35;;;;;;;13.07;11.75;;;22.40;99.90;;;;;;4590647;19;20006;-36
2022/08/20 07:24:08;;;;;;;11.32;10.10;;;22.40;99.90;;;;;;4591716;19;20494;-35
2022/08/20 07:25:40;;;;;;;11.82;10.73;;;22.40;99.90;;;;;;4592210;19;20463;-33
2022/08/20 07:27:12;;;;;;;13.32;11.93;;;22.40;99.90;;;;;;4591423;19;20025;-32
2022/08/20 07:28:43;;;;;;;13.00;11.80;;;22.50;99.90;;;;;;4591701;19;20021;-33
2022/08/20 07:33:57;;;;;;;11.88;10.75;;;22.50;99.90;;;;;;4592585;19;20082;-34
2022/08/20 07:35:28;;;;;;;12.30;11.10;;;22.50;99.90;;;;;;4591897;19;20014;-32
2022/08/20 07:36:59;;;;;;;11.93;10.70;;;22.50;99.90;;;;;;4592323;19;20011;-33
2022/08/20 07:38:31;;;;;;;12.07;10.93;;;22.50;99.90;;;;;;4591357;19;20011;-32
2022/08/20 07:40:05;;;;;;;11.77;10.57;;;22.40;99.90;;;;;;4590207;19;20022;-35
2022/08/20 07:41:36;;;;;;;11.35;10.15;;;22.50;99.90;;;;;;4589929;19;20011;-32
2022/08/20 07:43:09;;;;;;;10.57;9.65;;;22.40;99.90;;;;;;4591132;19;20014;-33
2022/08/20 07:44:40;;;;;;;11.38;10.15;;;22.40;99.90;;;;;;4590381;19;20030;-32
2022/08/20 07:46:13;;;;;;;12.82;11.00;;;22.40;99.90;;;;;;4591631;19;20018;-37
2022/08/20 07:47:44;;;;;;;12.02;10.65;;;22.40;99.90;;;;;;4589806;19;20022;-31
2022/08/20 07:49:15;;;;;;;11.05;10.02;;;22.40;99.90;;;;;;4592185;19;20017;-38
2022/08/20 07:50:48;;;;;;;13.20;11.43;;;22.40;99.90;;;;;;4591300;19;20026;-33
2022/08/20 07:52:20;;;;;;;12.93;11.63;;;22.50;99.90;;;;;;4591641;19;20069;-35
2022/08/20 07:53:51;;;;;;;12.95;11.45;;;22.50;99.90;;;;;;4590168;19;20010;-33
2022/08/20 07:55:23;;;;;;;12.18;11.07;;;22.50;99.90;;;;;;4592005;19;20467;-32
2022/08/20 07:56:54;;;;;;;13.38;12.00;;;22.50;99.90;;;;;;4590098;19;20095;-31
2022/08/20 07:58:25;;;;;;;14.27;12.93;;;22.50;99.90;;;;;;4591214;19;20494;-32